Weaverville, CA (96093)

6:46 AM PDT on August 21, 2014 (GMT -0700)
Weaverville | Change Station
CLOSE
Current Station
Airport
Location: Weaverville,
Elevation: 2349 ft
Nearby Weather Stations

Elev 2349 ft 40.75 °N, 122.92 °W | Updated 11 minutes ago

Clear
Clear
55 °F
Feels Like 55 °F
N
0
Wind Variable Wind from North

Today
High -- | Low -- °F
--% Chance of Precip.
Yesterday
High -- | Low -- °F
Precip. -- in
6:28 AM 8:00 PM
Waning Crescent, 14% visible
Pressure 30.00 in
Visibility 10.0 miles
Clouds Clear
Dew Point 50 °F
Humidity 82%
Rainfall 0.00 in
Snow Depth Not available.
UV 0 out of 12
Pollen 7.40 out of 12
Air Quality Not available.
Flu Activity Not available.
METAR KO54 211335Z AUTO 00000KT 10SM CLR 13/10 A3000 RMK AO1

More Conditions Fewer Conditions

Pressure 30.00 in
Visibility 10.0 miles
Clouds Clear
Dew Point 50 °F
Humidity 82%
Rainfall 0.00 in
Snow Depth Not available.
UV 0 out of 12
Pollen 7.40 out of 12
Air Quality Not available.
Flu Activity Not available.
METAR KO54 211335Z AUTO 00000KT 10SM CLR 13/10 A3000 RMK AO1

More Conditions Fewer Conditions

10-Day Weather Forecast

Almanac

Astronomy

Aug. 21, 2014 Rise Set
Actual Time 6:28 AM PDT 8:00 PM PDT
Civil Twilight 5:59 AM PDT 8:29 PM PDT
Nautical Twilight 5:24 AM PDT 9:04 PM PDT
Astronomical Twilight 4:47 AM PDT 9:41 PM PDT
Moon 3:02 AM PDT 5:33 PM PDT
Length of Visible Light 14h 30m
Length of Day
13h 32m
Tomorrow will be 2m 30s shorter.
Waning Crescent, 14% of the Moon is Illuminated
Today
Waning Crescent
Aug 25
New
Sep 2
First Quarter
Sep 8
Full
Sep 15
Last Quarter

Today's Extremes

State Highs State Lows

Community

WunderPhotos

Upload Photos

1,745,918 photos uploaded!

WunderBlogs® & News

Nearby

Snow Depth

Station Depth Elevation
Adin Mountain 0 in 6200 ft
Cedar Pass 1 in 7100 ft
Independence Creek 0 in 6500 ft
Independence Camp 0 in 7000 ft
CSS Lab 1 in 6900 ft

Earthquake Activity

City Distance Mag. Time & Date
No recent earthquake activity has been reported nearby.
Minimum magnitude displayed is 2.5.

Coastal Water Temperatures

Place Temperature
No Stations Reporting

Nearby Weather Stations